Time;durP1;ratioP1;P1;durP2;ratioP2;P2;SDS_P1;SDS_P2;PMS_P1;PMS_P2;Temp;Humidity;BMP_temperature;BMP_pressure;BME280_temperature;BME280_humidity;BME280_pressure;Samples;Min_cycle;Max_cycle;Signal;HPM_P1;HPM_P2
2023/06/03 00:00:04;;;;;;;;;16.00;14.00;;;;;;;;4985063;28;45472;-71
2023/06/03 00:02:30;;;;;;;;;18.33;15.00;;;;;;;;4991137;28;46186;-72
2023/06/03 00:04:55;;;;;;;;;17.33;15.67;;;;;;;;4986939;28;45466;-71
2023/06/03 00:07:20;;;;;;;;;15.67;12.00;;;;;;;;4986978;28;45324;-73
2023/06/03 00:09:45;;;;;;;;;17.67;13.67;;;;;;;;4984988;28;45629;-72
2023/06/03 00:12:11;;;;;;;;;19.00;16.33;;;;;;;;4991122;28;45366;-74
2023/06/03 00:14:36;;;;;;;;;17.00;12.33;;;;;;;;4985251;28;45509;-74
2023/06/03 00:17:01;;;;;;;;;21.67;15.67;;;;;;;;4987093;28;46410;-71
2023/06/03 00:19:27;;;;;;;;;18.00;16.00;;;;;;;;4986449;28;46401;-73
2023/06/03 00:21:54;;;;;;;;;15.67;15.33;;;;;;;;4983445;28;46205;-72
2023/06/03 00:24:23;;;;;;;;;18.67;14.67;;;;;;;;4991616;28;46448;-72
2023/06/03 00:26:49;;;;;;;;;20.67;14.33;;;;;;;;4992635;28;45675;-72
2023/06/03 00:29:15;;;;;;;;;20.00;15.67;;;;;;;;4989995;28;46441;-72
2023/06/03 00:31:40;;;;;;;;;20.33;14.33;;;;;;;;4990442;28;46032;-73
2023/06/03 00:34:05;;;;;;;;;20.67;18.00;;;;;;;;4988271;28;48175;-72
2023/06/03 00:36:31;;;;;;;;;20.67;18.33;;;;;;;;4985510;28;45835;-72
2023/06/03 00:38:56;;;;;;;;;16.67;16.33;;;;;;;;4990078;28;45769;-75
2023/06/03 00:41:21;;;;;;;;;17.00;14.00;;;;;;;;4990863;28;45947;-72
2023/06/03 00:43:47;;;;;;;;;23.67;18.00;;;;;;;;4987169;28;45535;-73
2023/06/03 00:46:13;;;;;;;;;16.67;14.33;;;;;;;;4990243;28;45595;-72
2023/06/03 00:48:38;;;;;;;;;23.00;19.00;;;;;;;;4982884;28;45630;-70
2023/06/03 00:51:05;;;;;;;;;18.33;16.67;;;;;;;;4982251;28;45876;-72
2023/06/03 00:53:30;;;;;;;;;16.67;14.33;;;;;;;;4981337;28;46270;-69
2023/06/03 00:55:55;;;;;;;;;17.33;15.00;;;;;;;;4980364;28;45383;-72
2023/06/03 00:58:21;;;;;;;;;27.00;19.00;;;;;;;;4979623;28;45388;-72
2023/06/03 01:00:47;;;;;;;;;14.33;14.33;;;;;;;;4982429;28;45672;-71
2023/06/03 01:03:14;;;;;;;;;15.00;14.67;;;;;;;;4983523;28;45777;-72
2023/06/03 01:05:45;;;;;;;;;21.00;17.33;;;;;;;;4983744;28;45640;-72
2023/06/03 01:08:21;;;;;;;;;22.00;20.33;;;;;;;;4989416;28;45334;-72
2023/06/03 01:10:51;;;;;;;;;19.67;17.67;;;;;;;;4991969;28;45666;-73
2023/06/03 01:13:36;;;;;;;;;26.67;19.67;;;;;;;;4979458;28;45482;-71
2023/06/03 01:16:04;;;;;;;;;20.00;19.00;;;;;;;;4990981;28;45707;-72
2023/06/03 01:18:31;;;;;;;;;23.67;17.67;;;;;;;;4984671;28;45688;-73
2023/06/03 01:21:00;;;;;;;;;21.33;18.67;;;;;;;;4988145;28;45468;-72
2023/06/03 01:23:33;;;;;;;;;22.00;20.33;;;;;;;;4986562;28;45618;-73
2023/06/03 01:25:59;;;;;;;;;22.33;18.00;;;;;;;;4992997;28;45474;-73
2023/06/03 01:28:28;;;;;;;;;20.00;18.67;;;;;;;;4989814;28;45761;-73
2023/06/03 01:30:56;;;;;;;;;18.67;17.33;;;;;;;;4984714;28;45372;-73
2023/06/03 01:33:22;;;;;;;;;22.33;18.67;;;;;;;;4992425;28;46229;-72
2023/06/03 01:35:48;;;;;;;;;24.67;18.67;;;;;;;;4983191;28;45529;-71
2023/06/03 01:38:14;;;;;;;;;21.33;17.67;;;;;;;;4989800;28;45458;-72
2023/06/03 01:40:39;;;;;;;;;28.67;23.67;;;;;;;;4990140;28;45907;-72
2023/06/03 01:43:05;;;;;;;;;23.00;20.33;;;;;;;;4984654;28;45707;-72
2023/06/03 01:45:30;;;;;;;;;23.00;19.33;;;;;;;;4986637;28;45817;-73
2023/06/03 01:47:56;;;;;;;;;20.33;19.33;;;;;;;;4987940;28;45682;-72
2023/06/03 01:50:22;;;;;;;;;16.00;16.00;;;;;;;;4988514;28;45951;-72
2023/06/03 01:52:47;;;;;;;;;21.67;17.67;;;;;;;;4979547;28;47457;-71
2023/06/03 01:55:12;;;;;;;;;24.33;22.00;;;;;;;;4982091;28;45689;-75
2023/06/03 01:57:38;;;;;;;;;25.33;19.33;;;;;;;;4979818;28;45953;-74
2023/06/03 02:00:06;;;;;;;;;18.33;17.00;;;;;;;;4983654;28;45892;-72
2023/06/03 02:02:31;;;;;;;;;26.33;23.00;;;;;;;;4976150;28;45725;-72
2023/06/03 02:04:57;;;;;;;;;19.00;17.67;;;;;;;;4982379;28;45859;-71
2023/06/03 02:07:25;;;;;;;;;23.33;22.00;;;;;;;;4993328;28;45347;-73
2023/06/03 02:09:51;;;;;;;;;20.00;19.00;;;;;;;;4992004;28;45620;-72
2023/06/03 02:12:16;;;;;;;;;25.00;18.67;;;;;;;;4990920;28;48203;-72
2023/06/03 02:14:42;;;;;;;;;21.67;19.33;;;;;;;;4978265;28;45426;-70
2023/06/03 02:17:07;;;;;;;;;19.67;17.33;;;;;;;;4993487;28;45520;-70
2023/06/03 02:19:34;;;;;;;;;24.33;20.00;;;;;;;;4991464;28;45452;-73
2023/06/03 02:22:00;;;;;;;;;24.33;21.00;;;;;;;;4985231;28;47241;-73
2023/06/03 02:24:28;;;;;;;;;20.00;18.33;;;;;;;;4987096;28;45460;-72
2023/06/03 02:26:54;;;;;;;;;22.33;22.00;;;;;;;;4992912;28;45422;-72
2023/06/03 02:29:20;;;;;;;;;21.00;15.67;;;;;;;;4981050;28;45505;-72
2023/06/03 02:31:45;;;;;;;;;25.00;21.00;;;;;;;;4987104;28;45454;-71
2023/06/03 02:34:11;;;;;;;;;21.33;20.67;;;;;;;;4947466;28;1235196;-73
2023/06/03 02:36:37;;;;;;;;;19.33;17.00;;;;;;;;4993709;28;45326;-72
2023/06/03 02:39:03;;;;;;;;;24.33;20.67;;;;;;;;4993328;28;45936;-71
2023/06/03 02:41:28;;;;;;;;;27.67;22.67;;;;;;;;4991950;28;47322;-73
2023/06/03 02:43:53;;;;;;;;;21.67;18.00;;;;;;;;4992387;28;45830;-72
2023/06/03 02:46:19;;;;;;;;;22.33;18.67;;;;;;;;4994240;28;46214;-71
2023/06/03 02:48:44;;;;;;;;;24.00;22.67;;;;;;;;4992329;28;45894;-71
2023/06/03 02:51:09;;;;;;;;;23.33;18.00;;;;;;;;4993774;28;46253;-72
2023/06/03 02:53:35;;;;;;;;;22.33;18.33;;;;;;;;4992602;28;45323;-71
2023/06/03 02:56:00;;;;;;;;;24.67;21.00;;;;;;;;4992934;28;45674;-72
2023/06/03 02:58:25;;;;;;;;;23.33;19.00;;;;;;;;4993691;28;45657;-74
2023/06/03 03:00:51;;;;;;;;;20.33;19.00;;;;;;;;4990927;28;47236;-73
2023/06/03 03:03:16;;;;;;;;;22.00;17.33;;;;;;;;4992842;28;45542;-73
2023/06/03 03:05:42;;;;;;;;;18.33;16.33;;;;;;;;4992534;28;45413;-72
2023/06/03 03:08:08;;;;;;;;;26.00;22.33;;;;;;;;4991769;28;45532;-70
2023/06/03 03:10:33;;;;;;;;;30.33;23.33;;;;;;;;4992334;28;46387;-72
2023/06/03 03:12:58;;;;;;;;;23.33;20.00;;;;;;;;4992611;28;45852;-71
2023/06/03 03:15:23;;;;;;;;;14.67;14.67;;;;;;;;4983547;28;45453;-71
2023/06/03 03:17:49;;;;;;;;;26.00;20.33;;;;;;;;4986222;28;45484;-75
2023/06/03 03:20:14;;;;;;;;;16.33;15.33;;;;;;;;4980512;28;46485;-73
2023/06/03 03:22:40;;;;;;;;;28.33;23.33;;;;;;;;4990970;28;45861;-72
2023/06/03 03:25:06;;;;;;;;;30.00;19.67;;;;;;;;4987110;28;45693;-72
2023/06/03 03:27:31;;;;;;;;;24.33;19.00;;;;;;;;4990233;28;47339;-72
2023/06/03 03:29:58;;;;;;;;;30.00;22.67;;;;;;;;4992200;28;45804;-72
2023/06/03 03:32:23;;;;;;;;;26.00;21.67;;;;;;;;4992148;28;45624;-73
2023/06/03 03:34:58;;;;;;;;;27.33;22.67;;;;;;;;4990930;28;46032;-73
2023/06/03 03:37:24;;;;;;;;;26.33;22.00;;;;;;;;4991412;28;46420;-73
2023/06/03 03:39:49;;;;;;;;;26.00;22.67;;;;;;;;4992697;28;45708;-72
2023/06/03 03:42:15;;;;;;;;;28.00;23.33;;;;;;;;4991603;28;45319;-73
2023/06/03 03:44:40;;;;;;;;;23.67;20.00;;;;;;;;4985992;28;45366;-72
2023/06/03 03:47:06;;;;;;;;;24.33;19.67;;;;;;;;4988207;28;45745;-73
2023/06/03 03:49:34;;;;;;;;;24.67;20.33;;;;;;;;4989114;28;46605;-73
2023/06/03 03:52:04;;;;;;;;;22.00;20.00;;;;;;;;4989167;28;45471;-73
2023/06/03 03:54:29;;;;;;;;;20.67;18.67;;;;;;;;4989450;28;45642;-73
2023/06/03 03:56:57;;;;;;;;;31.33;27.67;;;;;;;;4989005;28;45359;-72
2023/06/03 03:59:25;;;;;;;;;25.00;18.67;;;;;;;;4990607;28;45844;-72
2023/06/03 04:01:51;;;;;;;;;22.67;17.67;;;;;;;;4989326;28;46035;-73
2023/06/03 04:04:29;;;;;;;;;22.00;22.00;;;;;;;;4992482;28;45489;-73
2023/06/03 04:06:54;;;;;;;;;23.67;20.67;;;;;;;;4990807;28;45750;-74
2023/06/03 04:09:20;;;;;;;;;22.00;17.00;;;;;;;;4995166;28;45890;-75
2023/06/03 04:11:45;;;;;;;;;19.67;18.67;;;;;;;;4995294;28;45469;-71
2023/06/03 04:14:14;;;;;;;;;24.67;20.67;;;;;;;;4995112;28;45381;-71
2023/06/03 04:16:48;;;;;;;;;20.67;19.67;;;;;;;;4993870;28;46469;-71
2023/06/03 04:19:20;;;;;;;;;28.00;23.33;;;;;;;;4994882;28;45932;-72
2023/06/03 04:21:46;;;;;;;;;27.00;19.67;;;;;;;;4982396;28;45378;-74
2023/06/03 04:24:11;;;;;;;;;23.67;18.00;;;;;;;;4989626;28;45548;-72
2023/06/03 04:26:38;;;;;;;;;32.00;25.33;;;;;;;;4994985;28;45339;-72
2023/06/03 04:29:04;;;;;;;;;29.33;23.67;;;;;;;;4988433;28;45751;-72
2023/06/03 04:31:29;;;;;;;;;24.67;22.33;;;;;;;;4995680;28;45977;-71
2023/06/03 04:33:54;;;;;;;;;20.33;18.67;;;;;;;;4995578;28;45480;-73
2023/06/03 04:36:20;;;;;;;;;25.67;20.00;;;;;;;;4994292;28;45380;-72
2023/06/03 04:38:45;;;;;;;;;28.67;27.67;;;;;;;;4994728;28;45614;-73
2023/06/03 04:41:11;;;;;;;;;21.67;19.67;;;;;;;;4987234;28;45377;-74
2023/06/03 04:43:40;;;;;;;;;21.00;16.00;;;;;;;;4986871;28;45495;-71
2023/06/03 04:46:07;;;;;;;;;21.33;14.33;;;;;;;;4993690;28;45387;-72
2023/06/03 04:48:33;;;;;;;;;22.33;18.67;;;;;;;;4994277;28;45358;-72
2023/06/03 04:51:00;;;;;;;;;14.00;14.00;;;;;;;;4995453;28;45778;-73
2023/06/03 04:53:26;;;;;;;;;21.00;20.33;;;;;;;;4995145;28;45706;-72
2023/06/03 04:55:51;;;;;;;;;21.33;16.33;;;;;;;;4994101;28;45496;-73
2023/06/03 04:58:19;;;;;;;;;17.67;13.67;;;;;;;;4995165;28;45554;-72
2023/06/03 05:00:45;;;;;;;;;18.67;16.00;;;;;;;;4994786;28;45791;-71
2023/06/03 05:03:10;;;;;;;;;16.33;14.33;;;;;;;;4995326;28;45762;-73
2023/06/03 05:05:38;;;;;;;;;19.33;17.67;;;;;;;;4988275;28;46266;-74
2023/06/03 05:08:03;;;;;;;;;16.33;15.33;;;;;;;;4989972;28;48166;-74
2023/06/03 05:10:30;;;;;;;;;17.00;14.00;;;;;;;;4992413;28;45722;-74
2023/06/03 05:12:57;;;;;;;;;18.00;13.00;;;;;;;;4994300;28;45736;-72
2023/06/03 05:15:22;;;;;;;;;17.33;13.67;;;;;;;;4990891;28;45460;-73
2023/06/03 05:17:47;;;;;;;;;17.33;13.00;;;;;;;;4986937;28;45491;-74
2023/06/03 05:20:12;;;;;;;;;16.00;14.33;;;;;;;;4991295;28;45291;-75
2023/06/03 05:22:38;;;;;;;;;15.00;13.33;;;;;;;;4994643;28;45471;-72
2023/06/03 05:25:04;;;;;;;;;16.67;15.00;;;;;;;;4989506;28;45521;-74
2023/06/03 05:27:30;;;;;;;;;15.00;14.00;;;;;;;;4993831;28;45616;-72
2023/06/03 05:29:55;;;;;;;;;15.00;11.00;;;;;;;;4992769;28;45584;-72
2023/06/03 05:32:20;;;;;;;;;16.00;14.00;;;;;;;;4993294;28;45415;-72
2023/06/03 05:34:46;;;;;;;;;15.00;13.33;;;;;;;;4994519;28;45797;-71
2023/06/03 05:37:11;;;;;;;;;15.33;15.33;;;;;;;;4994110;28;45778;-73
2023/06/03 05:39:37;;;;;;;;;16.00;15.00;;;;;;;;4993294;28;45762;-73
2023/06/03 05:42:02;;;;;;;;;18.00;15.33;;;;;;;;4993051;28;46766;-73
2023/06/03 05:44:27;;;;;;;;;21.00;16.00;;;;;;;;4994724;28;45346;-73
2023/06/03 05:46:52;;;;;;;;;12.67;10.00;;;;;;;;4988706;28;45873;-73
2023/06/03 05:49:18;;;;;;;;;17.33;14.00;;;;;;;;4994505;28;46010;-74
2023/06/03 05:51:43;;;;;;;;;11.75;11.50;;;;;;;;4979109;28;45536;-75
2023/06/03 05:54:08;;;;;;;;;12.67;11.33;;;;;;;;4979323;28;45435;-75
2023/06/03 05:56:34;;;;;;;;;16.00;14.33;;;;;;;;4976577;28;48417;-75
2023/06/03 05:58:59;;;;;;;;;15.67;13.67;;;;;;;;4981783;28;45663;-72
2023/06/03 06:01:24;;;;;;;;;14.67;12.33;;;;;;;;4984811;28;45672;-73
2023/06/03 06:03:50;;;;;;;;;15.00;12.67;;;;;;;;4982305;28;45925;-74
2023/06/03 06:06:15;;;;;;;;;13.33;10.33;;;;;;;;4994211;28;45896;-73
2023/06/03 06:08:42;;;;;;;;;15.00;13.00;;;;;;;;4980657;28;45314;-75
2023/06/03 06:11:08;;;;;;;;;14.67;11.67;;;;;;;;4990473;28;45624;-76
2023/06/03 06:13:33;;;;;;;;;12.33;12.33;;;;;;;;4993677;28;45414;-74
2023/06/03 06:16:00;;;;;;;;;14.00;12.67;;;;;;;;4992605;28;46798;-75
2023/06/03 06:18:25;;;;;;;;;14.00;10.33;;;;;;;;4986006;28;45411;-75
2023/06/03 06:20:51;;;;;;;;;15.00;12.33;;;;;;;;4989707;28;45340;-75
2023/06/03 06:23:16;;;;;;;;;11.50;10.75;;;;;;;;4994032;28;45413;-73
2023/06/03 06:25:49;;;;;;;;;18.75;12.50;;;;;;;;4992973;28;46095;-74
2023/06/03 06:28:17;;;;;;;;;12.25;12.25;;;;;;;;4993560;28;45612;-72
2023/06/03 06:30:43;;;;;;;;;11.75;11.75;;;;;;;;4993303;28;45443;-73
2023/06/03 06:33:08;;;;;;;;;13.25;11.25;;;;;;;;4993714;28;45433;-73
2023/06/03 06:35:34;;;;;;;;;12.75;10.50;;;;;;;;4993560;28;45529;-73
2023/06/03 06:37:59;;;;;;;;;13.33;13.33;;;;;;;;4992076;28;45783;-74
2023/06/03 06:40:28;;;;;;;;;12.67;10.00;;;;;;;;4989088;28;45855;-73
2023/06/03 06:42:54;;;;;;;;;16.33;13.33;;;;;;;;4985835;28;45516;-73
2023/06/03 06:45:26;;;;;;;;;14.00;14.00;;;;;;;;4984544;28;46168;-74
2023/06/03 06:47:57;;;;;;;;;8.33;8.33;;;;;;;;4992107;28;45984;-72
2023/06/03 06:50:42;;;;;;;;;9.50;9.50;;;;;;;;4992083;28;45427;-72
2023/06/03 06:53:07;;;;;;;;;15.00;12.67;;;;;;;;4990353;28;47171;-72
2023/06/03 06:55:35;;;;;;;;;14.33;12.00;;;;;;;;4993076;28;46214;-74
2023/06/03 06:58:00;;;;;;;;;11.67;9.33;;;;;;;;4984503;28;45834;-72
2023/06/03 07:00:28;;;;;;;;;12.33;11.67;;;;;;;;4990013;28;46312;-74
2023/06/03 07:02:53;;;;;;;;;12.67;12.33;;;;;;;;4992679;28;45596;-73
2023/06/03 07:05:19;;;;;;;;;14.67;12.33;;;;;;;;4993513;28;45638;-73
2023/06/03 07:07:44;;;;;;;;;15.33;12.00;;;;;;;;4992458;28;45775;-73
2023/06/03 07:10:10;;;;;;;;;9.67;8.00;;;;;;;;4992706;28;45514;-73
2023/06/03 07:12:36;;;;;;;;;20.00;15.67;;;;;;;;4992349;28;46971;-73
2023/06/03 07:15:02;;;;;;;;;11.00;10.00;;;;;;;;4992764;28;46493;-73
2023/06/03 07:17:27;;;;;;;;;9.33;9.33;;;;;;;;4992877;28;45662;-73
2023/06/03 07:19:52;;;;;;;;;10.25;10.25;;;;;;;;4992826;28;45621;-75
2023/06/03 07:22:18;;;;;;;;;9.50;9.50;;;;;;;;4992886;28;45632;-74
2023/06/03 07:24:45;;;;;;;;;12.50;8.25;;;;;;;;4992814;28;45830;-73
2023/06/03 07:27:19;;;;;;;;;13.00;10.75;;;;;;;;4992768;28;44801;-73
2023/06/03 07:29:44;;;;;;;;;11.75;11.50;;;;;;;;4992678;28;45726;-74
2023/06/03 07:32:09;;;;;;;;;9.50;8.75;;;;;;;;4992495;28;45464;-72
2023/06/03 07:34:36;;;;;;;;;12.00;9.50;;;;;;;;4991078;28;48231;-73
2023/06/03 07:37:02;;;;;;;;;9.00;8.50;;;;;;;;4987763;28;45483;-75
2023/06/03 07:39:28;;;;;;;;;13.25;10.00;;;;;;;;4985325;28;45794;-74
2023/06/03 07:41:54;;;;;;;;;10.00;8.50;;;;;;;;4984963;28;45627;-74
2023/06/03 07:44:23;;;;;;;;;7.75;7.75;;;;;;;;4990258;28;45766;-73
2023/06/03 07:46:56;;;;;;;;;10.50;10.00;;;;;;;;4988948;28;45890;-73
2023/06/03 07:49:21;;;;;;;;;12.50;10.25;;;;;;;;4984524;28;45789;-73
2023/06/03 07:51:48;;;;;;;;;16.00;10.00;;;;;;;;4987307;28;45614;-72
2023/06/03 07:54:14;;;;;;;;;11.33;9.67;;;;;;;;4988060;28;46431;-73
2023/06/03 07:56:40;;;;;;;;;13.25;9.75;;;;;;;;4986449;28;45513;-71
2023/06/03 07:59:08;;;;;;;;;11.67;10.00;;;;;;;;4989584;28;45485;-71
2023/06/03 08:01:35;;;;;;;;;9.67;9.33;;;;;;;;4984921;28;45362;-76
2023/06/03 08:04:01;;;;;;;;;9.00;9.00;;;;;;;;4984336;28;45440;-73
2023/06/03 08:06:27;;;;;;;;;10.50;7.00;;;;;;;;4978995;28;45936;-72
2023/06/03 08:08:54;;;;;;;;;10.00;10.00;;;;;;;;4978170;28;45440;-72
2023/06/03 08:11:19;;;;;;;;;2.00;0.00;;;;;;;;4984280;28;45553;-74
2023/06/03 08:13:44;;;;;;;;;8.50;8.25;;;;;;;;4988313;28;45929;-74
2023/06/03 08:16:13;;;;;;;;;8.50;8.50;;;;;;;;4982706;28;45758;-73
2023/06/03 08:18:43;;;;;;;;;5.00;3.00;;;;;;;;4982179;28;46270;-74
2023/06/03 08:21:08;;;;;;;;;9.50;8.50;;;;;;;;4982364;28;46347;-72
2023/06/03 08:23:33;;;;;;;;;8.75;8.75;;;;;;;;4983853;28;45448;-70
2023/06/03 08:25:59;;;;;;;;;7.75;7.00;;;;;;;;4986650;28;45393;-73
2023/06/03 08:28:25;;;;;;;;;10.33;9.00;;;;;;;;4989887;28;45889;-72
2023/06/03 08:30:51;;;;;;;;;7.75;7.50;;;;;;;;4985003;28;46040;-73
2023/06/03 08:33:16;;;;;;;;;8.00;6.25;;;;;;;;4986336;28;45477;-73
2023/06/03 08:35:42;;;;;;;;;13.25;9.00;;;;;;;;4990417;28;45453;-72
2023/06/03 08:38:08;;;;;;;;;9.50;8.00;;;;;;;;4983220;28;45647;-72
2023/06/03 08:40:35;;;;;;;;;7.00;7.00;;;;;;;;4988326;28;45323;-71
2023/06/03 08:43:02;;;;;;;;;6.50;6.50;;;;;;;;4981236;28;46944;-73
2023/06/03 08:45:35;;;;;;;;;13.00;9.00;;;;;;;;4984842;28;45757;-73
2023/06/03 08:48:00;;;;;;;;;7.00;7.00;;;;;;;;4991387;28;45550;-72
2023/06/03 08:50:26;;;;;;;;;7.75;7.75;;;;;;;;4993531;28;45665;-72
2023/06/03 08:52:52;;;;;;;;;9.25;7.00;;;;;;;;4995299;28;45667;-72
2023/06/03 08:55:18;;;;;;;;;7.67;7.67;;;;;;;;4995218;28;45382;-73
2023/06/03 08:57:47;;;;;;;;;6.50;6.00;;;;;;;;4995277;28;45424;-72
2023/06/03 09:00:17;;;;;;;;;5.25;5.25;;;;;;;;4988089;28;45497;-70
2023/06/03 09:02:42;;;;;;;;;10.00;8.00;;;;;;;;4983867;28;46496;-71
2023/06/03 09:05:08;;;;;;;;;3.00;3.00;;;;;;;;4988141;28;46179;-72
2023/06/03 09:07:35;;;;;;;;;8.00;8.00;;;;;;;;4990365;28;45854;-70
2023/06/03 09:10:02;;;;;;;;;9.50;8.25;;;;;;;;4994743;28;45415;-76
2023/06/03 09:12:28;;;;;;;;;9.00;8.25;;;;;;;;4995249;28;45783;-74
2023/06/03 09:14:54;;;;;;;;;7.00;7.00;;;;;;;;4993985;28;45700;-73
2023/06/03 09:17:20;;;;;;;;;3.50;3.50;;;;;;;;4994122;28;45322;-73
2023/06/03 09:19:46;;;;;;;;;8.67;8.67;;;;;;;;4994943;28;45370;-72
2023/06/03 09:22:11;;;;;;;;;7.67;6.33;;;;;;;;4993500;28;45690;-72
2023/06/03 09:24:36;;;;;;;;;7.00;6.00;;;;;;;;4993552;28;45357;-74
2023/06/03 09:27:02;;;;;;;;;7.00;7.00;;;;;;;;4994670;28;45278;-72
2023/06/03 09:29:28;;;;;;;;;8.67;8.33;;;;;;;;4994121;28;45373;-72
2023/06/03 09:31:53;;;;;;;;;9.00;7.00;;;;;;;;4994361;28;45354;-73
2023/06/03 09:34:22;;;;;;;;;8.50;7.25;;;;;;;;4993823;28;45847;-72
2023/06/03 09:36:48;;;;;;;;;7.00;6.00;;;;;;;;4993982;28;45734;-73
2023/06/03 09:39:17;;;;;;;;;7.00;7.00;;;;;;;;4993402;28;45588;-73
2023/06/03 09:41:43;;;;;;;;;3.50;1.75;;;;;;;;4993480;28;46358;-70
2023/06/03 09:44:10;;;;;;;;;4.50;4.50;;;;;;;;4993712;28;45761;-72
2023/06/03 09:46:35;;;;;;;;;8.00;6.00;;;;;;;;4993970;28;45708;-72
2023/06/03 09:49:17;;;;;;;;;5.50;5.25;;;;;;;;4986280;28;45672;-74
2023/06/03 09:51:46;;;;;;;;;8.00;6.25;;;;;;;;4989417;28;46606;-73
2023/06/03 09:54:20;;;;;;;;;7.50;7.50;;;;;;;;4990274;28;45571;-74
2023/06/03 09:56:46;;;;;;;;;6.50;6.50;;;;;;;;4989548;28;46017;-72
2023/06/03 09:59:13;;;;;;;;;10.00;7.25;;;;;;;;4990646;28;45989;-72
2023/06/03 10:01:39;;;;;;;;;8.00;8.00;;;;;;;;4992467;28;46052;-72
2023/06/03 10:04:04;;;;;;;;;7.75;7.00;;;;;;;;4993679;28;45486;-71
2023/06/03 10:06:30;;;;;;;;;7.67;6.00;;;;;;;;4986878;28;45616;-77
2023/06/03 10:08:55;;;;;;;;;8.00;8.00;;;;;;;;4981035;28;45311;-75
2023/06/03 10:11:22;;;;;;;;;7.25;7.00;;;;;;;;4981586;28;46207;-75
2023/06/03 10:13:47;;;;;;;;;10.50;7.75;;;;;;;;4993485;28;45792;-74
2023/06/03 10:16:12;;;;;;;;;8.50;8.50;;;;;;;;4994357;28;45620;-73
2023/06/03 10:18:39;;;;;;;;;11.67;6.33;;;;;;;;4993608;28;45268;-74
2023/06/03 10:21:08;;;;;;;;;8.25;7.50;;;;;;;;4993581;28;45488;-74
2023/06/03 10:23:36;;;;;;;;;7.25;7.25;;;;;;;;4992263;28;45443;-73
2023/06/03 10:26:02;;;;;;;;;6.50;6.00;;;;;;;;4993106;28;45337;-74
2023/06/03 10:28:27;;;;;;;;;7.25;6.75;;;;;;;;4993023;28;45392;-73
2023/06/03 10:30:55;;;;;;;;;7.50;6.25;;;;;;;;4992983;28;46461;-74
2023/06/03 10:33:22;;;;;;;;;7.50;5.25;;;;;;;;4992109;28;45863;-74
2023/06/03 10:35:47;;;;;;;;;9.75;9.00;;;;;;;;4990827;28;45736;-72
2023/06/03 10:38:14;;;;;;;;;11.25;7.75;;;;;;;;4993121;28;45835;-73
2023/06/03 10:40:40;;;;;;;;;9.00;7.75;;;;;;;;4991273;28;47073;-73
2023/06/03 10:43:08;;;;;;;;;8.00;7.00;;;;;;;;4992699;28;45235;-74
2023/06/03 10:45:33;;;;;;;;;10.25;8.25;;;;;;;;4991818;28;45510;-74
2023/06/03 10:48:05;;;;;;;;;6.25;5.25;;;;;;;;4992645;28;45655;-75
2023/06/03 10:50:49;;;;;;;;;7.00;7.00;;;;;;;;4992609;28;46395;-71
2023/06/03 10:53:30;;;;;;;;;7.50;7.25;;;;;;;;4992623;28;45461;-74
2023/06/03 10:56:21;;;;;;;;;8.00;6.25;;;;;;;;4983376;28;45795;-72
2023/06/03 10:58:57;;;;;;;;;9.75;6.75;;;;;;;;4987795;28;45329;-74
2023/06/03 11:01:23;;;;;;;;;7.25;7.25;;;;;;;;4992507;28;45616;-75
2023/06/03 11:04:02;;;;;;;;;7.25;6.25;;;;;;;;4984435;28;45567;-73
2023/06/03 11:06:28;;;;;;;;;7.75;7.75;;;;;;;;4991924;28;45478;-74
2023/06/03 11:09:08;;;;;;;;;9.25;7.75;;;;;;;;4992417;28;45784;-74
2023/06/03 11:11:40;;;;;;;;;9.50;6.25;;;;;;;;4988468;28;45724;-73
2023/06/03 11:14:06;;;;;;;;;11.67;11.33;;;;;;;;4997359;28;46271;-73
2023/06/03 11:16:51;;;;;;;;;8.00;8.00;;;;;;;;4990332;28;45606;-74
2023/06/03 11:19:30;;;;;;;;;8.00;8.00;;;;;;;;4994176;28;46046;-74
2023/06/03 11:21:55;;;;;;;;;9.00;7.75;;;;;;;;4996143;28;45732;-73
2023/06/03 11:24:41;;;;;;;;;8.33;7.00;;;;;;;;4995178;28;45755;-74
2023/06/03 11:27:09;;;;;;;;;8.25;7.00;;;;;;;;4978041;28;45447;-75
2023/06/03 11:29:48;;;;;;;;;6.00;5.00;;;;;;;;4996427;28;45683;-74
2023/06/03 11:32:22;;;;;;;;;10.67;10.67;;;;;;;;4986355;28;45387;-73
2023/06/03 11:34:48;;;;;;;;;9.00;8.67;;;;;;;;4996198;28;45392;-74
2023/06/03 11:37:20;;;;;;;;;7.67;7.00;;;;;;;;4996901;28;44958;-76
2023/06/03 11:39:57;;;;;;;;;8.25;7.25;;;;;;;;4995427;28;45715;-73
2023/06/03 11:42:23;;;;;;;;;11.33;10.00;;;;;;;;4995090;28;45433;-74
2023/06/03 11:44:48;;;;;;;;;10.00;10.00;;;;;;;;4994896;28;45208;-74
2023/06/03 11:47:13;;;;;;;;;9.67;8.33;;;;;;;;4996523;28;45523;-71
2023/06/03 11:49:39;;;;;;;;;9.67;8.00;;;;;;;;4996481;28;45507;-74
2023/06/03 11:52:05;;;;;;;;;10.00;8.33;;;;;;;;4982927;28;46331;-74
2023/06/03 11:54:30;;;;;;;;;8.67;8.67;;;;;;;;4979262;28;45767;-75
2023/06/03 11:56:58;;;;;;;;;8.67;8.67;;;;;;;;4980786;28;45865;-73
2023/06/03 11:59:33;;;;;;;;;15.00;9.67;;;;;;;;4978413;28;45491;-74
2023/06/03 12:02:08;;;;;;;;;9.00;7.33;;;;;;;;4982876;28;46237;-71
2023/06/03 12:04:34;;;;;;;;;8.00;8.00;;;;;;;;4994248;28;45760;-74
2023/06/03 12:06:59;;;;;;;;;11.67;9.00;;;;;;;;4993763;28;45532;-74
2023/06/03 12:09:26;;;;;;;;;7.67;6.00;;;;;;;;4991802;28;45787;-73
2023/06/03 12:11:51;;;;;;;;;7.33;5.00;;;;;;;;4996431;28;45420;-74
2023/06/03 12:14:27;;;;;;;;;8.67;8.67;;;;;;;;4996352;28;45302;-74
2023/06/03 12:16:54;;;;;;;;;8.00;8.00;;;;;;;;4995631;28;45486;-73
2023/06/03 12:19:19;;;;;;;;;8.67;7.67;;;;;;;;4994875;28;45925;-72
2023/06/03 12:21:53;;;;;;;;;6.67;5.00;;;;;;;;4992980;28;45424;-74
2023/06/03 12:24:18;;;;;;;;;8.67;8.00;;;;;;;;4995841;28;45739;-74
2023/06/03 12:26:44;;;;;;;;;10.00;9.33;;;;;;;;4995597;28;45846;-73
2023/06/03 12:29:11;;;;;;;;;7.33;6.33;;;;;;;;4994979;28;45466;-73
2023/06/03 12:31:37;;;;;;;;;11.33;8.33;;;;;;;;4995343;28;46497;-74
2023/06/03 12:34:02;;;;;;;;;8.67;8.33;;;;;;;;4995368;28;45453;-73
2023/06/03 12:36:44;;;;;;;;;8.33;8.33;;;;;;;;4991879;28;45484;-74
2023/06/03 12:39:10;;;;;;;;;7.33;7.33;;;;;;;;4983202;28;46712;-73
2023/06/03 12:41:35;;;;;;;;;9.33;9.00;;;;;;;;4995090;28;46082;-74
2023/06/03 12:44:01;;;;;;;;;7.33;6.00;;;;;;;;4995500;28;45499;-73
2023/06/03 12:46:27;;;;;;;;;5.33;3.67;;;;;;;;4995969;28;45818;-73
2023/06/03 12:48:56;;;;;;;;;5.67;4.67;;;;;;;;4994324;28;45695;-73
2023/06/03 12:51:21;;;;;;;;;7.33;5.33;;;;;;;;4996147;28;45643;-74
2023/06/03 12:53:47;;;;;;;;;10.00;7.67;;;;;;;;4985875;28;45645;-75
2023/06/03 12:56:13;;;;;;;;;8.00;6.00;;;;;;;;4996079;28;45297;-76
2023/06/03 12:58:39;;;;;;;;;5.67;5.67;;;;;;;;4995406;28;45354;-73
2023/06/03 13:01:04;;;;;;;;;12.67;7.33;;;;;;;;4995067;28;46751;-73
2023/06/03 13:03:30;;;;;;;;;10.00;7.67;;;;;;;;4995507;28;45509;-74
2023/06/03 13:05:55;;;;;;;;;8.00;6.00;;;;;;;;4995212;28;45745;-74
2023/06/03 13:08:20;;;;;;;;;7.00;6.67;;;;;;;;4995211;28;45848;-74
2023/06/03 13:10:46;;;;;;;;;7.00;7.00;;;;;;;;4995519;28;46295;-76
2023/06/03 13:13:11;;;;;;;;;8.00;4.67;;;;;;;;4995418;28;45369;-73
2023/06/03 13:15:36;;;;;;;;;9.33;7.33;;;;;;;;4995785;28;46114;-75
2023/06/03 13:18:02;;;;;;;;;9.00;7.67;;;;;;;;4995024;28;45687;-74
2023/06/03 13:20:27;;;;;;;;;9.67;6.33;;;;;;;;4993494;28;46530;-74
2023/06/03 13:22:53;;;;;;;;;8.33;8.33;;;;;;;;4996022;28;45691;-73
2023/06/03 13:25:18;;;;;;;;;6.33;6.33;;;;;;;;4994407;28;45434;-72
2023/06/03 13:27:44;;;;;;;;;9.00;8.33;;;;;;;;4994414;28;45756;-73
2023/06/03 13:30:11;;;;;;;;;9.67;8.00;;;;;;;;4994632;28;46146;-72
2023/06/03 13:32:37;;;;;;;;;9.67;7.33;;;;;;;;4994797;28;45418;-74
2023/06/03 13:35:02;;;;;;;;;7.00;6.00;;;;;;;;4982735;28;45372;-74
2023/06/03 13:37:28;;;;;;;;;9.00;7.33;;;;;;;;4995179;28;45507;-72
2023/06/03 13:39:53;;;;;;;;;4.33;3.00;;;;;;;;4994163;28;45398;-74
2023/06/03 13:42:19;;;;;;;;;10.00;7.67;;;;;;;;4995261;28;45700;-75
2023/06/03 13:44:45;;;;;;;;;9.00;7.67;;;;;;;;4994909;28;45529;-73
2023/06/03 13:47:10;;;;;;;;;7.00;5.67;;;;;;;;4993709;28;45570;-73
2023/06/03 13:49:35;;;;;;;;;5.33;4.00;;;;;;;;4994553;28;45488;-73
2023/06/03 13:52:01;;;;;;;;;9.67;6.33;;;;;;;;4980875;28;45379;-73
2023/06/03 13:54:26;;;;;;;;;7.33;7.33;;;;;;;;4994535;28;45706;-75
2023/06/03 13:56:54;;;;;;;;;12.00;8.33;;;;;;;;4995226;28;45505;-75
2023/06/03 13:59:20;;;;;;;;;10.33;7.33;;;;;;;;4991097;28;45803;-75
2023/06/03 14:01:46;;;;;;;;;7.67;6.00;;;;;;;;4992894;28;45488;-75
2023/06/03 14:04:11;;;;;;;;;6.00;6.00;;;;;;;;4993473;28;45354;-73
2023/06/03 14:06:36;;;;;;;;;4.00;2.00;;;;;;;;4993562;28;45490;-73
2023/06/03 14:09:03;;;;;;;;;6.00;6.00;;;;;;;;4993103;28;47012;-72
2023/06/03 14:11:28;;;;;;;;;8.00;5.67;;;;;;;;4987948;28;45797;-73
2023/06/03 14:13:53;;;;;;;;;7.00;7.00;;;;;;;;4993810;28;45345;-73
2023/06/03 14:16:22;;;;;;;;;5.33;5.33;;;;;;;;4993450;28;45549;-72
2023/06/03 14:18:47;;;;;;;;;5.00;5.00;;;;;;;;4993926;28;46281;-74
2023/06/03 14:21:12;;;;;;;;;8.33;5.67;;;;;;;;4993539;28;45375;-73
2023/06/03 14:23:37;;;;;;;;;6.00;6.00;;;;;;;;4993838;28;45671;-73
2023/06/03 14:26:03;;;;;;;;;7.67;7.67;;;;;;;;4993132;28;45884;-73